Time;durP1;ratioP1;P1;durP2;ratioP2;P2;SDS_P1;SDS_P2;PMS_P1;PMS_P2;Temp;Humidity;BMP_temperature;BMP_pressure;BME280_temperature;BME280_humidity;BME280_pressure;Samples;Min_cycle;Max_cycle;Signal;HPM_P1;HPM_P2
2021/06/11 15:00:50;;;;;;;;;3.00;3.00;;;;;22.82;46.82;98419.13;6308754;21;247079;-92
2021/06/11 20:27:51;;;;;;;;;8.00;7.67;;;;;22.47;47.41;98403.56;6110258;22;104114;-92
2021/06/11 20:43:57;;;;;;;;;7.00;6.67;;;;;22.40;47.64;98418.75;6030377;22;101698;-91
2021/06/11 20:46:46;;;;;;;;;6.33;6.00;;;;;22.42;47.45;98422.06;5966922;22;101423;-91
2021/06/11 20:49:33;;;;;;;;;7.00;7.00;;;;;22.44;47.61;98425.34;5850571;22;108250;-91
2021/06/11 20:52:17;;;;;;;;;5.67;5.00;;;;;22.37;47.19;98420.16;5865096;22;101296;-90
2021/06/11 20:55:13;;;;;;;;;7.00;7.00;;;;;22.34;47.39;98409.66;5707285;22;101362;-92
2021/06/11 20:58:06;;;;;;;;;6.00;6.00;;;;;22.30;47.41;98418.78;5811395;22;101410;-91
2021/06/11 21:01:10;;;;;;;;;8.67;7.67;;;;;22.35;47.30;98430.59;5841582;22;102123;-91
2021/06/11 21:07:01;;;;;;;;;6.00;6.00;;;;;22.35;47.35;98424.28;5811236;22;102241;-91
2021/06/11 21:09:51;;;;;;;;;6.67;6.67;;;;;22.31;47.39;98414.94;5755477;22;102414;-91
2021/06/11 21:12:50;;;;;;;;;6.00;6.00;;;;;22.24;46.75;98405.03;5632213;22;107119;-91
2021/06/11 21:16:00;;;;;;;;;8.00;7.00;;;;;22.42;47.13;98435.84;5725914;23;103504;-90
2021/06/11 21:18:44;;;;;;;;;7.33;6.67;;;;;22.37;47.53;98435.84;5725835;22;101839;-90
2021/06/11 21:21:35;;;;;;;;;7.67;6.33;;;;;22.33;47.08;98416.31;5934845;22;102523;-91
2021/06/11 21:24:24;;;;;;;;;8.67;7.67;;;;;22.33;47.21;98426.50;5811936;22;108034;-91
2021/06/11 21:27:17;;;;;;;;;7.00;7.00;;;;;22.32;47.15;98424.84;5760518;22;102811;-91
2021/06/11 21:30:19;;;;;;;;;6.67;6.67;;;;;22.28;47.00;98412.75;5803245;22;102168;-91
2021/06/11 21:33:16;;;;;;;;;7.00;6.00;;;;;22.24;47.18;98424.31;6110280;22;102101;-91
2021/06/11 21:36:20;;;;;;;;;7.67;6.67;;;;;22.27;47.30;98420.19;6064035;23;104512;-90
2021/06/11 21:39:25;;;;;;;;;8.00;7.33;;;;;22.27;46.90;98427.63;5743274;23;102234;-90
2021/06/11 21:42:28;;;;;;;;;8.00;8.00;;;;;22.29;47.16;98430.94;5564936;23;102708;-90
2021/06/11 21:45:17;;;;;;;;;7.67;6.33;;;;;22.26;47.09;98418.53;5587895;23;101324;-90
2021/06/11 21:54:32;;;;;;;;;6.67;6.00;;;;;22.21;46.90;98438.66;5650812;23;101705;-91
2021/06/11 21:57:19;;;;;;;;;7.33;6.67;;;;;22.17;47.14;98434.81;5512658;23;103041;-90
2021/06/11 22:01:02;;;;;;;;;8.00;8.00;;;;;22.31;46.88;98450.75;5619952;23;107328;-91
2021/06/11 22:04:19;;;;;;;;;7.00;7.00;;;;;22.15;46.86;98425.19;5667884;23;107065;-90
2021/06/11 22:07:30;;;;;;;;;6.33;6.00;;;;;22.23;46.84;98441.97;5657586;23;102112;-91
2021/06/11 22:10:34;;;;;;;;;8.33;8.00;;;;;22.21;46.73;98446.91;5584126;23;101997;-91
2021/06/11 22:16:40;;;;;;;;;6.67;6.67;;;;;22.26;46.74;98448.81;5771910;22;102819;-90
2021/06/11 22:19:53;;;;;;;;;7.00;7.00;;;;;22.22;46.60;98451.31;5678490;22;101593;-90
2021/06/11 22:34:47;;;;;;;;;6.33;6.33;;;;;22.21;46.59;98443.31;6089876;22;102207;-91
2021/06/11 22:38:02;;;;;;;;;8.00;6.67;;;;;22.17;46.57;98437.56;5747803;22;102689;-92
2021/06/11 22:40:52;;;;;;;;;7.33;6.33;;;;;22.10;46.38;98430.72;5633085;22;104310;-91
2021/06/11 22:44:22;;;;;;;;;7.33;6.67;;;;;22.10;46.38;98430.72;5786514;22;101468;-90
2021/06/11 22:47:31;;;;;;;;;7.67;7.67;;;;;22.23;46.43;98452.97;5669757;22;103618;-90
2021/06/11 22:50:38;;;;;;;;;7.33;7.33;;;;;22.14;46.36;98443.63;5646441;22;103724;-90
2021/06/11 22:53:51;;;;;;;;;7.00;7.00;;;;;22.07;46.41;98440.34;5696989;22;102294;-91
2021/06/11 22:57:16;;;;;;;;;;;;;;;;;;;;;
2021/06/11 23:03:09;;;;;;;;;7.67;7.67;;;;;22.13;45.92;98447.50;5752279;22;103284;-91
2021/06/11 23:21:07;;;;;;;;;8.00;6.67;;;;;22.11;46.06;98444.19;5724598;22;102035;-92
2021/06/11 23:24:40;;;;;;;;;9.00;7.00;;;;;22.09;46.28;98446.41;5657515;22;103504;-92
2021/06/11 23:27:37;;;;;;;;;8.00;8.00;;;;;21.98;46.29;98422.72;5624571;23;102166;-92
2021/06/11 23:37:44;;;;;;;;;8.00;7.00;;;;;22.05;45.76;98437.06;5856954;22;106456;-89
2021/06/11 23:50:00;;;;;;;;;8.33;8.00;;;;;22.00;45.86;98420.53;6223498;22;103482;-88
2021/06/11 23:57:15;;;;;;;;;8.00;6.67;;;;;21.95;45.67;98423.31;5545097;23;101662;-90
